sensor_id;sensor_type;location;lat;lon;timestamp;P1;durP1;ratioP1;P2;durP2;ratioP2
41689;SDS011;27372;42.658;23.256;2023-06-22T00:01:21;8.55;;;6.25;;
41689;SDS011;27372;42.658;23.256;2023-06-22T00:03:50;10.27;;;5.85;;
41689;SDS011;27372;42.658;23.256;2023-06-22T00:06:15;8.25;;;6.18;;
41689;SDS011;27372;42.658;23.256;2023-06-22T00:11:15;9.05;;;6.57;;
41689;SDS011;27372;42.658;23.256;2023-06-22T00:13:58;8.85;;;6.30;;
41689;SDS011;27372;42.658;23.256;2023-06-22T00:16:27;7.53;;;5.97;;
41689;SDS011;27372;42.658;23.256;2023-06-22T00:18:52;8.38;;;6.45;;
41689;SDS011;27372;42.658;23.256;2023-06-22T00:21:17;8.10;;;6.33;;
41689;SDS011;27372;42.658;23.256;2023-06-22T00:23:45;7.68;;;6.30;;
41689;SDS011;27372;42.658;23.256;2023-06-22T00:26:10;10.60;;;6.60;;
41689;SDS011;27372;42.658;23.256;2023-06-22T00:28:38;8.75;;;6.72;;
41689;SDS011;27372;42.658;23.256;2023-06-22T00:31:06;11.52;;;7.15;;
41689;SDS011;27372;42.658;23.256;2023-06-22T00:33:32;7.85;;;6.07;;
41689;SDS011;27372;42.658;23.256;2023-06-22T00:35:57;8.97;;;6.20;;
41689;SDS011;27372;42.658;23.256;2023-06-22T00:38:22;9.20;;;6.00;;
41689;SDS011;27372;42.658;23.256;2023-06-22T00:40:58;11.60;;;6.63;;
41689;SDS011;27372;42.658;23.256;2023-06-22T00:43:26;7.95;;;6.60;;
41689;SDS011;27372;42.658;23.256;2023-06-22T00:46:09;9.53;;;6.70;;
41689;SDS011;27372;42.658;23.256;2023-06-22T00:48:35;8.60;;;7.22;;
41689;SDS011;27372;42.658;23.256;2023-06-22T00:51:02;11.55;;;7.32;;
41689;SDS011;27372;42.658;23.256;2023-06-22T00:53:30;10.55;;;8.07;;
41689;SDS011;27372;42.658;23.256;2023-06-22T00:56:06;10.32;;;7.95;;
41689;SDS011;27372;42.658;23.256;2023-06-22T00:58:33;11.70;;;8.30;;
41689;SDS011;27372;42.658;23.256;2023-06-22T01:01:02;11.18;;;8.07;;
41689;SDS011;27372;42.658;23.256;2023-06-22T01:03:29;8.70;;;7.35;;
41689;SDS011;27372;42.658;23.256;2023-06-22T01:06:05;11.13;;;8.93;;
41689;SDS011;27372;42.658;23.256;2023-06-22T01:08:48;11.85;;;8.00;;
41689;SDS011;27372;42.658;23.256;2023-06-22T01:11:25;10.98;;;7.25;;
41689;SDS011;27372;42.658;23.256;2023-06-22T01:14:08;9.80;;;8.05;;
41689;SDS011;27372;42.658;23.256;2023-06-22T01:16:37;10.93;;;8.48;;
41689;SDS011;27372;42.658;23.256;2023-06-22T01:21:44;10.75;;;8.05;;
41689;SDS011;27372;42.658;23.256;2023-06-22T01:29:20;13.68;;;8.80;;
41689;SDS011;27372;42.658;23.256;2023-06-22T01:31:48;10.60;;;8.50;;
41689;SDS011;27372;42.658;23.256;2023-06-22T01:34:15;13.18;;;8.90;;
41689;SDS011;27372;42.658;23.256;2023-06-22T01:36:43;11.63;;;8.90;;
41689;SDS011;27372;42.658;23.256;2023-06-22T01:41:35;12.10;;;8.23;;
41689;SDS011;27372;42.658;23.256;2023-06-22T01:44:05;12.25;;;9.00;;
41689;SDS011;27372;42.658;23.256;2023-06-22T01:46:34;10.57;;;8.15;;
41689;SDS011;27372;42.658;23.256;2023-06-22T01:48:59;14.90;;;8.38;;
41689;SDS011;27372;42.658;23.256;2023-06-22T01:51:27;9.30;;;8.23;;
41689;SDS011;27372;42.658;23.256;2023-06-22T01:53:56;12.03;;;8.47;;
41689;SDS011;27372;42.658;23.256;2023-06-22T01:56:21;12.73;;;7.72;;
41689;SDS011;27372;42.658;23.256;2023-06-22T01:58:52;9.85;;;8.30;;
41689;SDS011;27372;42.658;23.256;2023-06-22T02:01:28;10.15;;;7.75;;
41689;SDS011;27372;42.658;23.256;2023-06-22T02:04:02;8.73;;;7.50;;
41689;SDS011;27372;42.658;23.256;2023-06-22T02:06:30;9.95;;;7.15;;
41689;SDS011;27372;42.658;23.256;2023-06-22T02:09:01;9.77;;;6.88;;
41689;SDS011;27372;42.658;23.256;2023-06-22T02:14:06;9.93;;;8.00;;
41689;SDS011;27372;42.658;23.256;2023-06-22T02:16:32;13.45;;;7.30;;
41689;SDS011;27372;42.658;23.256;2023-06-22T02:19:01;10.23;;;8.77;;
41689;SDS011;27372;42.658;23.256;2023-06-22T02:21:28;10.20;;;8.35;;
41689;SDS011;27372;42.658;23.256;2023-06-22T02:23:56;10.27;;;8.55;;
41689;SDS011;27372;42.658;23.256;2023-06-22T02:26:22;11.98;;;7.93;;
41689;SDS011;27372;42.658;23.256;2023-06-22T02:28:51;11.35;;;8.13;;
41689;SDS011;27372;42.658;23.256;2023-06-22T02:31:16;10.77;;;7.70;;
41689;SDS011;27372;42.658;23.256;2023-06-22T02:33:45;11.00;;;8.35;;
41689;SDS011;27372;42.658;23.256;2023-06-22T02:36:10;11.80;;;8.32;;
41689;SDS011;27372;42.658;23.256;2023-06-22T02:38:41;10.40;;;8.52;;
41689;SDS011;27372;42.658;23.256;2023-06-22T02:43:45;12.15;;;9.70;;
41689;SDS011;27372;42.658;23.256;2023-06-22T02:46:10;9.40;;;8.40;;
41689;SDS011;27372;42.658;23.256;2023-06-22T02:48:36;9.48;;;8.05;;
41689;SDS011;27372;42.658;23.256;2023-06-22T02:51:16;13.30;;;7.80;;
41689;SDS011;27372;42.658;23.256;2023-06-22T02:53:45;11.40;;;7.70;;
41689;SDS011;27372;42.658;23.256;2023-06-22T02:56:10;12.65;;;8.18;;
41689;SDS011;27372;42.658;23.256;2023-06-22T02:58:39;10.82;;;8.63;;
41689;SDS011;27372;42.658;23.256;2023-06-22T03:01:44;12.45;;;8.25;;
41689;SDS011;27372;42.658;23.256;2023-06-22T03:04:09;11.43;;;7.72;;
41689;SDS011;27372;42.658;23.256;2023-06-22T03:06:35;9.25;;;7.93;;
41689;SDS011;27372;42.658;23.256;2023-06-22T03:09:01;11.10;;;7.85;;
41689;SDS011;27372;42.658;23.256;2023-06-22T03:11:33;10.80;;;8.63;;
41689;SDS011;27372;42.658;23.256;2023-06-22T03:16:24;10.73;;;8.17;;
41689;SDS011;27372;42.658;23.256;2023-06-22T03:18:49;11.35;;;8.15;;
41689;SDS011;27372;42.658;23.256;2023-06-22T03:21:18;10.88;;;8.93;;
41689;SDS011;27372;42.658;23.256;2023-06-22T03:23:43;11.45;;;8.88;;
41689;SDS011;27372;42.658;23.256;2023-06-22T03:26:09;9.40;;;8.10;;
41689;SDS011;27372;42.658;23.256;2023-06-22T03:28:34;11.23;;;7.80;;
41689;SDS011;27372;42.658;23.256;2023-06-22T03:31:07;10.55;;;7.65;;
41689;SDS011;27372;42.658;23.256;2023-06-22T03:33:33;8.70;;;7.75;;
41689;SDS011;27372;42.658;23.256;2023-06-22T03:35:58;9.20;;;7.85;;
41689;SDS011;27372;42.658;23.256;2023-06-22T03:38:23;11.27;;;8.47;;
41689;SDS011;27372;42.658;23.256;2023-06-22T03:40:49;9.65;;;7.70;;
41689;SDS011;27372;42.658;23.256;2023-06-22T03:43:14;11.40;;;7.33;;
41689;SDS011;27372;42.658;23.256;2023-06-22T03:45:39;11.57;;;8.20;;
41689;SDS011;27372;42.658;23.256;2023-06-22T03:48:08;10.95;;;7.90;;
41689;SDS011;27372;42.658;23.256;2023-06-22T03:50:33;9.00;;;8.10;;
41689;SDS011;27372;42.658;23.256;2023-06-22T03:53:01;10.57;;;8.00;;
41689;SDS011;27372;42.658;23.256;2023-06-22T03:55:29;10.07;;;8.20;;
41689;SDS011;27372;42.658;23.256;2023-06-22T03:57:55;11.65;;;8.82;;
41689;SDS011;27372;42.658;23.256;2023-06-22T04:00:22;12.20;;;9.52;;
41689;SDS011;27372;42.658;23.256;2023-06-22T04:02:47;17.45;;;9.90;;
41689;SDS011;27372;42.658;23.256;2023-06-22T04:05:13;10.73;;;9.50;;
41689;SDS011;27372;42.658;23.256;2023-06-22T04:07:38;11.30;;;8.32;;
41689;SDS011;27372;42.658;23.256;2023-06-22T04:10:04;11.38;;;9.00;;
41689;SDS011;27372;42.658;23.256;2023-06-22T04:12:48;12.40;;;8.40;;
41689;SDS011;27372;42.658;23.256;2023-06-22T04:15:16;15.45;;;9.27;;
41689;SDS011;27372;42.658;23.256;2023-06-22T04:17:44;12.18;;;8.65;;
41689;SDS011;27372;42.658;23.256;2023-06-22T04:20:09;12.93;;;9.00;;
41689;SDS011;27372;42.658;23.256;2023-06-22T04:22:34;11.57;;;9.25;;
41689;SDS011;27372;42.658;23.256;2023-06-22T04:25:03;12.55;;;9.85;;
41689;SDS011;27372;42.658;23.256;2023-06-22T04:27:29;17.45;;;9.88;;
41689;SDS011;27372;42.658;23.256;2023-06-22T04:29:54;16.38;;;10.45;;
41689;SDS011;27372;42.658;23.256;2023-06-22T04:32:19;18.27;;;10.17;;
41689;SDS011;27372;42.658;23.256;2023-06-22T04:34:44;14.53;;;9.67;;
41689;SDS011;27372;42.658;23.256;2023-06-22T04:37:10;15.53;;;8.93;;
41689;SDS011;27372;42.658;23.256;2023-06-22T04:42:39;15.07;;;9.40;;
41689;SDS011;27372;42.658;23.256;2023-06-22T04:45:04;17.13;;;8.95;;
41689;SDS011;27372;42.658;23.256;2023-06-22T04:47:30;13.77;;;9.48;;
41689;SDS011;27372;42.658;23.256;2023-06-22T04:49:55;12.30;;;8.90;;
41689;SDS011;27372;42.658;23.256;2023-06-22T04:52:20;11.85;;;9.02;;
41689;SDS011;27372;42.658;23.256;2023-06-22T04:54:46;15.98;;;9.23;;
41689;SDS011;27372;42.658;23.256;2023-06-22T04:57:15;13.60;;;9.02;;
41689;SDS011;27372;42.658;23.256;2023-06-22T04:59:44;16.30;;;9.53;;
41689;SDS011;27372;42.658;23.256;2023-06-22T05:02:09;10.95;;;9.32;;
41689;SDS011;27372;42.658;23.256;2023-06-22T05:04:34;15.35;;;9.27;;
41689;SDS011;27372;42.658;23.256;2023-06-22T05:07:06;14.85;;;9.55;;
41689;SDS011;27372;42.658;23.256;2023-06-22T05:09:32;14.52;;;9.18;;
41689;SDS011;27372;42.658;23.256;2023-06-22T05:11:59;12.55;;;8.52;;
41689;SDS011;27372;42.658;23.256;2023-06-22T05:16:55;13.15;;;7.97;;
41689;SDS011;27372;42.658;23.256;2023-06-22T05:19:23;15.10;;;9.35;;
41689;SDS011;27372;42.658;23.256;2023-06-22T05:21:49;14.60;;;9.10;;
41689;SDS011;27372;42.658;23.256;2023-06-22T05:24:14;14.83;;;9.80;;
41689;SDS011;27372;42.658;23.256;2023-06-22T05:26:39;16.47;;;9.90;;
41689;SDS011;27372;42.658;23.256;2023-06-22T05:29:04;20.20;;;10.47;;
41689;SDS011;27372;42.658;23.256;2023-06-22T05:31:30;18.20;;;11.07;;
41689;SDS011;27372;42.658;23.256;2023-06-22T05:33:55;20.90;;;11.55;;
41689;SDS011;27372;42.658;23.256;2023-06-22T05:36:21;13.68;;;10.15;;
41689;SDS011;27372;42.658;23.256;2023-06-22T05:38:49;16.65;;;10.20;;
41689;SDS011;27372;42.658;23.256;2023-06-22T05:41:18;18.73;;;10.75;;
41689;SDS011;27372;42.658;23.256;2023-06-22T05:43:43;18.63;;;9.73;;
41689;SDS011;27372;42.658;23.256;2023-06-22T05:46:08;17.93;;;11.07;;
41689;SDS011;27372;42.658;23.256;2023-06-22T05:48:34;19.83;;;9.65;;
41689;SDS011;27372;42.658;23.256;2023-06-22T05:51:01;19.47;;;11.67;;
41689;SDS011;27372;42.658;23.256;2023-06-22T05:53:26;20.98;;;9.77;;
41689;SDS011;27372;42.658;23.256;2023-06-22T05:55:52;19.20;;;10.68;;
41689;SDS011;27372;42.658;23.256;2023-06-22T05:58:17;15.77;;;10.40;;
41689;SDS011;27372;42.658;23.256;2023-06-22T06:00:48;21.70;;;10.03;;
41689;SDS011;27372;42.658;23.256;2023-06-22T06:03:14;15.70;;;10.85;;
41689;SDS011;27372;42.658;23.256;2023-06-22T06:05:41;19.50;;;11.43;;
41689;SDS011;27372;42.658;23.256;2023-06-22T06:08:07;16.77;;;10.80;;
41689;SDS011;27372;42.658;23.256;2023-06-22T06:10:32;18.40;;;11.45;;
41689;SDS011;27372;42.658;23.256;2023-06-22T06:12:58;18.20;;;11.40;;
41689;SDS011;27372;42.658;23.256;2023-06-22T06:15:23;18.58;;;11.98;;
41689;SDS011;27372;42.658;23.256;2023-06-22T06:17:52;17.70;;;11.70;;
41689;SDS011;27372;42.658;23.256;2023-06-22T06:20:19;20.67;;;11.35;;
41689;SDS011;27372;42.658;23.256;2023-06-22T06:22:44;19.85;;;10.85;;
41689;SDS011;27372;42.658;23.256;2023-06-22T06:25:10;16.25;;;11.05;;
41689;SDS011;27372;42.658;23.256;2023-06-22T06:27:40;18.25;;;10.43;;
41689;SDS011;27372;42.658;23.256;2023-06-22T06:30:06;22.03;;;10.17;;
41689;SDS011;27372;42.658;23.256;2023-06-22T06:32:31;15.55;;;9.82;;
41689;SDS011;27372;42.658;23.256;2023-06-22T06:34:56;18.63;;;10.97;;
41689;SDS011;27372;42.658;23.256;2023-06-22T06:37:22;16.77;;;10.93;;
41689;SDS011;27372;42.658;23.256;2023-06-22T06:39:48;19.25;;;10.57;;
41689;SDS011;27372;42.658;23.256;2023-06-22T06:42:13;16.30;;;9.77;;
41689;SDS011;27372;42.658;23.256;2023-06-22T06:44:39;12.93;;;10.40;;
41689;SDS011;27372;42.658;23.256;2023-06-22T06:47:04;17.50;;;9.73;;
41689;SDS011;27372;42.658;23.256;2023-06-22T06:49:29;15.93;;;9.90;;
41689;SDS011;27372;42.658;23.256;2023-06-22T06:52:05;51.92;;;11.02;;
41689;SDS011;27372;42.658;23.256;2023-06-22T06:54:30;18.55;;;9.43;;
41689;SDS011;27372;42.658;23.256;2023-06-22T06:56:55;12.10;;;9.03;;
41689;SDS011;27372;42.658;23.256;2023-06-22T06:59:21;15.00;;;8.17;;
41689;SDS011;27372;42.658;23.256;2023-06-22T07:01:46;15.32;;;8.40;;
41689;SDS011;27372;42.658;23.256;2023-06-22T07:04:13;18.88;;;8.60;;
41689;SDS011;27372;42.658;23.256;2023-06-22T07:06:38;15.02;;;8.00;;
41689;SDS011;27372;42.658;23.256;2023-06-22T07:09:05;16.38;;;9.35;;
41689;SDS011;27372;42.658;23.256;2023-06-22T07:11:30;13.40;;;8.57;;
41689;SDS011;27372;42.658;23.256;2023-06-22T07:14:00;12.05;;;7.78;;
41689;SDS011;27372;42.658;23.256;2023-06-22T07:16:32;9.88;;;7.72;;
41689;SDS011;27372;42.658;23.256;2023-06-22T07:19:04;13.75;;;8.45;;
41689;SDS011;27372;42.658;23.256;2023-06-22T07:21:29;11.52;;;7.88;;
41689;SDS011;27372;42.658;23.256;2023-06-22T07:23:54;10.30;;;8.17;;
41689;SDS011;27372;42.658;23.256;2023-06-22T07:26:20;13.90;;;7.73;;
41689;SDS011;27372;42.658;23.256;2023-06-22T07:28:48;10.93;;;7.37;;
41689;SDS011;27372;42.658;23.256;2023-06-22T07:31:13;14.82;;;9.07;;
41689;SDS011;27372;42.658;23.256;2023-06-22T07:33:38;11.70;;;7.60;;
41689;SDS011;27372;42.658;23.256;2023-06-22T07:36:04;8.83;;;7.37;;
41689;SDS011;27372;42.658;23.256;2023-06-22T07:38:32;10.65;;;7.57;;
41689;SDS011;27372;42.658;23.256;2023-06-22T07:41:00;13.27;;;8.30;;
41689;SDS011;27372;42.658;23.256;2023-06-22T07:43:25;12.30;;;8.00;;
41689;SDS011;27372;42.658;23.256;2023-06-22T07:45:51;12.40;;;8.30;;
41689;SDS011;27372;42.658;23.256;2023-06-22T07:48:22;15.90;;;8.90;;
41689;SDS011;27372;42.658;23.256;2023-06-22T07:50:50;11.15;;;9.02;;
41689;SDS011;27372;42.658;23.256;2023-06-22T07:53:16;14.05;;;10.00;;
41689;SDS011;27372;42.658;23.256;2023-06-22T07:55:44;13.30;;;9.38;;
41689;SDS011;27372;42.658;23.256;2023-06-22T07:58:09;17.88;;;9.25;;
41689;SDS011;27372;42.658;23.256;2023-06-22T08:00:34;10.40;;;8.00;;
41689;SDS011;27372;42.658;23.256;2023-06-22T08:03:00;10.75;;;8.00;;
41689;SDS011;27372;42.658;23.256;2023-06-22T08:05:28;12.73;;;9.32;;
41689;SDS011;27372;42.658;23.256;2023-06-22T08:07:54;12.98;;;9.45;;
41689;SDS011;27372;42.658;23.256;2023-06-22T08:10:22;18.95;;;10.57;;
41689;SDS011;27372;42.658;23.256;2023-06-22T08:12:51;11.18;;;10.07;;
41689;SDS011;27372;42.658;23.256;2023-06-22T08:15:17;18.73;;;10.45;;
41689;SDS011;27372;42.658;23.256;2023-06-22T08:17:43;14.05;;;9.65;;
41689;SDS011;27372;42.658;23.256;2023-06-22T08:20:11;12.07;;;10.05;;
41689;SDS011;27372;42.658;23.256;2023-06-22T08:22:43;11.57;;;10.25;;
41689;SDS011;27372;42.658;23.256;2023-06-22T08:25:08;11.73;;;10.20;;
41689;SDS011;27372;42.658;23.256;2023-06-22T08:27:34;15.80;;;10.10;;
41689;SDS011;27372;42.658;23.256;2023-06-22T08:30:00;22.90;;;10.45;;
41689;SDS011;27372;42.658;23.256;2023-06-22T08:32:27;10.75;;;9.32;;
41689;SDS011;27372;42.658;23.256;2023-06-22T08:34:53;15.40;;;9.88;;
41689;SDS011;27372;42.658;23.256;2023-06-22T08:37:19;12.63;;;9.25;;
41689;SDS011;27372;42.658;23.256;2023-06-22T08:39:44;13.25;;;9.32;;
41689;SDS011;27372;42.658;23.256;2023-06-22T08:42:10;11.97;;;9.43;;
41689;SDS011;27372;42.658;23.256;2023-06-22T08:44:35;12.00;;;10.10;;
41689;SDS011;27372;42.658;23.256;2023-06-22T08:47:00;12.27;;;9.10;;
41689;SDS011;27372;42.658;23.256;2023-06-22T08:49:31;13.82;;;10.05;;
41689;SDS011;27372;42.658;23.256;2023-06-22T08:52:02;11.95;;;9.18;;
41689;SDS011;27372;42.658;23.256;2023-06-22T08:56:53;11.82;;;8.48;;
41689;SDS011;27372;42.658;23.256;2023-06-22T08:59:18;12.07;;;7.97;;
41689;SDS011;27372;42.658;23.256;2023-06-22T09:01:46;9.98;;;8.07;;
41689;SDS011;27372;42.658;23.256;2023-06-22T09:04:15;9.18;;;6.90;;
41689;SDS011;27372;42.658;23.256;2023-06-22T09:06:55;11.95;;;7.57;;
41689;SDS011;27372;42.658;23.256;2023-06-22T09:09:21;8.23;;;7.22;;
41689;SDS011;27372;42.658;23.256;2023-06-22T09:11:46;10.13;;;7.85;;
41689;SDS011;27372;42.658;23.256;2023-06-22T09:14:12;10.95;;;7.47;;
41689;SDS011;27372;42.658;23.256;2023-06-22T09:16:44;8.50;;;7.65;;
41689;SDS011;27372;42.658;23.256;2023-06-22T09:19:12;13.07;;;7.87;;
41689;SDS011;27372;42.658;23.256;2023-06-22T09:21:38;9.02;;;7.60;;
41689;SDS011;27372;42.658;23.256;2023-06-22T09:24:06;9.23;;;7.20;;
41689;SDS011;27372;42.658;23.256;2023-06-22T09:26:31;10.95;;;7.40;;
41689;SDS011;27372;42.658;23.256;2023-06-22T09:28:57;14.90;;;8.00;;
41689;SDS011;27372;42.658;23.256;2023-06-22T09:31:23;9.30;;;7.82;;
41689;SDS011;27372;42.658;23.256;2023-06-22T09:33:51;9.35;;;7.80;;
41689;SDS011;27372;42.658;23.256;2023-06-22T09:36:16;8.25;;;7.45;;
41689;SDS011;27372;42.658;23.256;2023-06-22T09:38:44;14.10;;;7.90;;
41689;SDS011;27372;42.658;23.256;2023-06-22T09:41:30;9.57;;;7.50;;
41689;SDS011;27372;42.658;23.256;2023-06-22T09:44:02;8.07;;;7.28;;
41689;SDS011;27372;42.658;23.256;2023-06-22T09:46:36;9.77;;;7.25;;
41689;SDS011;27372;42.658;23.256;2023-06-22T09:49:10;10.75;;;7.45;;
41689;SDS011;27372;42.658;23.256;2023-06-22T09:51:43;9.48;;;7.30;;
41689;SDS011;27372;42.658;23.256;2023-06-22T09:54:24;20.98;;;7.40;;
41689;SDS011;27372;42.658;23.256;2023-06-22T09:57:05;8.13;;;7.00;;
41689;SDS011;27372;42.658;23.256;2023-06-22T09:59:30;11.32;;;7.18;;
41689;SDS011;27372;42.658;23.256;2023-06-22T10:02:05;8.43;;;7.22;;
41689;SDS011;27372;42.658;23.256;2023-06-22T10:04:31;9.73;;;6.80;;
41689;SDS011;27372;42.658;23.256;2023-06-22T10:06:56;8.37;;;6.60;;
41689;SDS011;27372;42.658;23.256;2023-06-22T10:09:21;8.80;;;7.07;;
41689;SDS011;27372;42.658;23.256;2023-06-22T10:11:49;7.70;;;6.77;;
41689;SDS011;27372;42.658;23.256;2023-06-22T10:16:56;9.05;;;6.22;;
41689;SDS011;27372;42.658;23.256;2023-06-22T10:19:21;9.23;;;6.68;;
41689;SDS011;27372;42.658;23.256;2023-06-22T10:21:49;9.15;;;6.88;;
41689;SDS011;27372;42.658;23.256;2023-06-22T10:24:15;7.00;;;6.25;;
41689;SDS011;27372;42.658;23.256;2023-06-22T10:26:40;10.90;;;6.27;;
41689;SDS011;27372;42.658;23.256;2023-06-22T10:29:05;8.07;;;6.67;;
41689;SDS011;27372;42.658;23.256;2023-06-22T10:31:30;11.00;;;6.53;;
41689;SDS011;27372;42.658;23.256;2023-06-22T10:33:59;7.93;;;6.57;;
41689;SDS011;27372;42.658;23.256;2023-06-22T10:36:24;8.53;;;7.13;;
41689;SDS011;27372;42.658;23.256;2023-06-22T10:38:58;8.57;;;6.43;;
41689;SDS011;27372;42.658;23.256;2023-06-22T10:41:24;10.43;;;6.45;;
41689;SDS011;27372;42.658;23.256;2023-06-22T10:43:49;8.67;;;6.50;;
41689;SDS011;27372;42.658;23.256;2023-06-22T10:46:18;13.80;;;6.80;;
41689;SDS011;27372;42.658;23.256;2023-06-22T10:48:46;19.75;;;7.25;;
41689;SDS011;27372;42.658;23.256;2023-06-22T10:51:11;11.47;;;7.27;;
41689;SDS011;27372;42.658;23.256;2023-06-22T10:53:36;8.23;;;6.60;;
41689;SDS011;27372;42.658;23.256;2023-06-22T10:56:07;8.10;;;7.18;;
41689;SDS011;27372;42.658;23.256;2023-06-22T11:03:27;8.15;;;6.93;;
41689;SDS011;27372;42.658;23.256;2023-06-22T11:05:53;8.93;;;7.27;;
41689;SDS011;27372;42.658;23.256;2023-06-22T11:08:18;10.67;;;7.33;;
41689;SDS011;27372;42.658;23.256;2023-06-22T11:10:46;11.00;;;7.13;;
41689;SDS011;27372;42.658;23.256;2023-06-22T11:13:12;21.13;;;7.03;;
41689;SDS011;27372;42.658;23.256;2023-06-22T11:15:46;10.10;;;7.23;;
41689;SDS011;27372;42.658;23.256;2023-06-22T11:18:11;10.15;;;6.50;;
41689;SDS011;27372;42.658;23.256;2023-06-22T11:23:05;10.13;;;6.32;;
41689;SDS011;27372;42.658;23.256;2023-06-22T11:25:31;7.60;;;6.80;;
41689;SDS011;27372;42.658;23.256;2023-06-22T11:27:56;8.17;;;6.40;;
41689;SDS011;27372;42.658;23.256;2023-06-22T11:30:28;8.18;;;6.55;;
41689;SDS011;27372;42.658;23.256;2023-06-22T11:32:53;9.60;;;6.90;;
41689;SDS011;27372;42.658;23.256;2023-06-22T11:38:00;13.80;;;7.70;;
41689;SDS011;27372;42.658;23.256;2023-06-22T11:40:28;10.27;;;7.80;;
41689;SDS011;27372;42.658;23.256;2023-06-22T11:42:54;11.60;;;7.40;;
41689;SDS011;27372;42.658;23.256;2023-06-22T11:45:28;10.70;;;7.60;;
41689;SDS011;27372;42.658;23.256;2023-06-22T11:48:03;9.40;;;7.53;;
41689;SDS011;27372;42.658;23.256;2023-06-22T11:51:17;10.70;;;6.97;;
41689;SDS011;27372;42.658;23.256;2023-06-22T11:53:46;8.38;;;7.53;;
41689;SDS011;27372;42.658;23.256;2023-06-22T11:58:49;10.53;;;8.17;;
41689;SDS011;27372;42.658;23.256;2023-06-22T12:01:19;8.30;;;7.50;;
41689;SDS011;27372;42.658;23.256;2023-06-22T12:03:47;10.17;;;7.83;;
41689;SDS011;27372;42.658;23.256;2023-06-22T12:06:13;11.57;;;7.95;;
41689;SDS011;27372;42.658;23.256;2023-06-22T12:08:41;9.80;;;7.30;;
41689;SDS011;27372;42.658;23.256;2023-06-22T12:11:06;8.63;;;7.75;;
41689;SDS011;27372;42.658;23.256;2023-06-22T12:13:32;9.57;;;8.47;;
41689;SDS011;27372;42.658;23.256;2023-06-22T12:16:06;10.23;;;7.73;;
41689;SDS011;27372;42.658;23.256;2023-06-22T12:18:34;10.93;;;8.32;;
41689;SDS011;27372;42.658;23.256;2023-06-22T12:21:00;10.43;;;8.63;;
41689;SDS011;27372;42.658;23.256;2023-06-22T12:23:33;10.30;;;8.70;;
41689;SDS011;27372;42.658;23.256;2023-06-22T12:26:04;9.32;;;8.32;;
41689;SDS011;27372;42.658;23.256;2023-06-22T12:28:32;9.82;;;8.80;;
41689;SDS011;27372;42.658;23.256;2023-06-22T12:30:57;8.17;;;7.37;;
41689;SDS011;27372;42.658;23.256;2023-06-22T12:33:22;10.63;;;8.35;;
41689;SDS011;27372;42.658;23.256;2023-06-22T12:35:48;14.77;;;10.67;;
41689;SDS011;27372;42.658;23.256;2023-06-22T12:38:14;15.00;;;9.98;;
41689;SDS011;27372;42.658;23.256;2023-06-22T12:40:39;18.07;;;11.03;;
41689;SDS011;27372;42.658;23.256;2023-06-22T12:43:04;15.27;;;9.83;;
41689;SDS011;27372;42.658;23.256;2023-06-22T12:45:32;13.10;;;9.90;;
41689;SDS011;27372;42.658;23.256;2023-06-22T12:47:58;18.52;;;11.82;;
41689;SDS011;27372;42.658;23.256;2023-06-22T12:50:24;8.63;;;7.35;;
41689;SDS011;27372;42.658;23.256;2023-06-22T12:52:50;13.00;;;8.68;;
41689;SDS011;27372;42.658;23.256;2023-06-22T12:55:15;16.67;;;9.13;;
41689;SDS011;27372;42.658;23.256;2023-06-22T12:57:40;14.20;;;9.73;;
41689;SDS011;27372;42.658;23.256;2023-06-22T13:00:05;10.43;;;7.17;;
41689;SDS011;27372;42.658;23.256;2023-06-22T13:02:33;10.43;;;6.97;;
41689;SDS011;27372;42.658;23.256;2023-06-22T13:04:58;9.00;;;6.73;;
41689;SDS011;27372;42.658;23.256;2023-06-22T13:07:23;14.30;;;7.43;;
41689;SDS011;27372;42.658;23.256;2023-06-22T13:09:48;11.03;;;6.93;;
41689;SDS011;27372;42.658;23.256;2023-06-22T13:12:16;11.00;;;6.90;;
41689;SDS011;27372;42.658;23.256;2023-06-22T13:14:41;8.20;;;7.00;;
41689;SDS011;27372;42.658;23.256;2023-06-22T13:17:08;9.68;;;6.70;;
41689;SDS011;27372;42.658;23.256;2023-06-22T13:19:33;14.05;;;6.82;;
41689;SDS011;27372;42.658;23.256;2023-06-22T13:21:59;10.03;;;6.30;;
41689;SDS011;27372;42.658;23.256;2023-06-22T13:24:24;8.23;;;6.18;;
41689;SDS011;27372;42.658;23.256;2023-06-22T13:26:50;9.07;;;7.27;;
41689;SDS011;27372;42.658;23.256;2023-06-22T13:29:15;7.77;;;6.27;;
41689;SDS011;27372;42.658;23.256;2023-06-22T13:31:40;8.63;;;6.70;;
41689;SDS011;27372;42.658;23.256;2023-06-22T13:34:05;9.80;;;6.73;;
41689;SDS011;27372;42.658;23.256;2023-06-22T13:36:31;10.10;;;6.17;;
41689;SDS011;27372;42.658;23.256;2023-06-22T13:38:57;10.52;;;6.97;;
41689;SDS011;27372;42.658;23.256;2023-06-22T13:41:22;10.67;;;8.50;;
41689;SDS011;27372;42.658;23.256;2023-06-22T13:43:47;14.60;;;8.77;;
41689;SDS011;27372;42.658;23.256;2023-06-22T13:46:12;11.33;;;7.67;;
41689;SDS011;27372;42.658;23.256;2023-06-22T13:48:38;10.33;;;7.93;;
41689;SDS011;27372;42.658;23.256;2023-06-22T13:51:03;11.53;;;7.87;;
41689;SDS011;27372;42.658;23.256;2023-06-22T13:53:28;9.77;;;7.60;;
41689;SDS011;27372;42.658;23.256;2023-06-22T13:55:53;10.37;;;8.03;;
41689;SDS011;27372;42.658;23.256;2023-06-22T13:58:19;10.93;;;8.00;;
41689;SDS011;27372;42.658;23.256;2023-06-22T14:00:45;15.57;;;8.32;;
41689;SDS011;27372;42.658;23.256;2023-06-22T14:03:10;10.90;;;8.32;;
41689;SDS011;27372;42.658;23.256;2023-06-22T14:05:35;11.70;;;8.47;;
41689;SDS011;27372;42.658;23.256;2023-06-22T14:08:00;11.03;;;8.00;;
41689;SDS011;27372;42.658;23.256;2023-06-22T14:10:26;9.53;;;8.17;;
41689;SDS011;27372;42.658;23.256;2023-06-22T14:12:51;15.83;;;8.00;;
41689;SDS011;27372;42.658;23.256;2023-06-22T14:15:18;12.68;;;8.20;;
41689;SDS011;27372;42.658;23.256;2023-06-22T14:17:43;9.88;;;7.70;;
41689;SDS011;27372;42.658;23.256;2023-06-22T14:20:08;11.00;;;8.20;;
41689;SDS011;27372;42.658;23.256;2023-06-22T14:22:33;11.38;;;8.30;;
41689;SDS011;27372;42.658;23.256;2023-06-22T14:25:02;9.80;;;7.63;;
41689;SDS011;27372;42.658;23.256;2023-06-22T14:27:27;11.90;;;7.75;;
41689;SDS011;27372;42.658;23.256;2023-06-22T14:29:55;11.27;;;7.90;;
41689;SDS011;27372;42.658;23.256;2023-06-22T14:32:21;14.32;;;8.25;;
41689;SDS011;27372;42.658;23.256;2023-06-22T14:34:46;8.93;;;7.30;;
41689;SDS011;27372;42.658;23.256;2023-06-22T14:37:11;9.73;;;7.60;;
41689;SDS011;27372;42.658;23.256;2023-06-22T14:39:38;10.45;;;7.20;;
41689;SDS011;27372;42.658;23.256;2023-06-22T14:42:03;12.65;;;8.18;;
41689;SDS011;27372;42.658;23.256;2023-06-22T14:44:28;11.18;;;8.45;;
41689;SDS011;27372;42.658;23.256;2023-06-22T14:46:54;14.45;;;8.40;;
41689;SDS011;27372;42.658;23.256;2023-06-22T14:49:19;14.90;;;9.25;;
41689;SDS011;27372;42.658;23.256;2023-06-22T14:51:44;13.57;;;9.00;;
41689;SDS011;27372;42.658;23.256;2023-06-22T14:54:10;10.13;;;8.30;;
41689;SDS011;27372;42.658;23.256;2023-06-22T14:56:35;11.63;;;8.20;;
41689;SDS011;27372;42.658;23.256;2023-06-22T14:59:00;11.00;;;8.87;;
41689;SDS011;27372;42.658;23.256;2023-06-22T15:01:28;10.32;;;8.70;;
41689;SDS011;27372;42.658;23.256;2023-06-22T15:03:53;12.00;;;8.67;;
41689;SDS011;27372;42.658;23.256;2023-06-22T15:06:18;12.07;;;8.80;;
41689;SDS011;27372;42.658;23.256;2023-06-22T15:08:44;11.90;;;8.23;;